createdAt,value
2024-01-05T00:16:58.191Z,4.5
2024-01-05T00:36:58.545Z,4.57
2024-01-05T00:56:58.365Z,4.51
2024-01-05T01:43:51.128Z,4.69
2024-01-05T01:43:51.129Z,4.66
2024-01-05T01:56:58.354Z,4.74
2024-01-05T02:16:58.437Z,4.75
2024-01-05T02:36:58.467Z,4.74
2024-01-05T02:56:59.144Z,4.63
2024-01-05T03:16:58.605Z,4.58
2024-01-05T03:37:01.298Z,4.64
2024-01-05T03:56:58.740Z,4.69
2024-01-05T04:16:59.417Z,4.7
2024-01-05T04:36:58.836Z,4.71
2024-01-05T04:56:58.742Z,4.79
2024-01-05T05:16:58.856Z,4.85
2024-01-05T05:36:58.851Z,4.55
2024-01-05T05:56:58.826Z,4.42
2024-01-05T06:16:58.967Z,4.5
2024-01-05T06:36:58.966Z,4.49
2024-01-05T06:56:59.039Z,4.45
2024-01-05T07:16:59.081Z,4.31
2024-01-05T07:36:59.303Z,4
2024-01-05T07:56:59.326Z,3.96
2024-01-05T08:16:59.145Z,4.06
2024-01-05T08:36:59.414Z,4.3
2024-01-05T08:57:00.223Z,4.66
2024-01-05T09:16:59.368Z,5.05
2024-01-05T09:36:59.563Z,5.39
2024-01-05T09:57:01.057Z,5.92
2024-01-05T10:16:59.530Z,6.75
2024-01-05T10:36:59.617Z,6.89
2024-01-05T10:56:59.486Z,6.55
2024-01-05T11:16:59.520Z,6.65
2024-01-05T11:36:59.874Z,6.83
2024-01-05T11:56:59.635Z,7.25
2024-01-05T12:16:59.668Z,7.7
2024-01-05T12:36:59.819Z,7.94
2024-01-05T12:56:59.932Z,7.91
2024-01-05T13:16:59.878Z,7.7
2024-01-05T13:36:59.829Z,7.71
2024-01-05T13:57:00.180Z,7.74
2024-01-05T14:16:59.869Z,7.49
2024-01-05T14:37:00.042Z,7.25
2024-01-05T14:57:00.629Z,7.03
2024-01-05T15:17:00.011Z,6.77
2024-01-05T15:37:00.216Z,6.61
2024-01-05T15:57:00.240Z,6.41
2024-01-05T16:17:00.106Z,6.29
2024-01-05T16:37:00.429Z,6.14
2024-01-05T16:57:00.527Z,5.94
2024-01-05T17:17:00.359Z,5.91
2024-01-05T17:37:00.379Z,5.91
2024-01-05T17:57:00.333Z,5.84
2024-01-05T18:17:02.030Z,5.64
2024-01-05T18:37:00.445Z,5.54
2024-01-05T18:57:00.531Z,5.05
2024-01-05T19:17:00.611Z,4.46
2024-01-05T19:37:00.588Z,3.96
2024-01-05T19:57:00.712Z,3.62
2024-01-05T20:17:00.863Z,3.62
2024-01-05T20:37:00.808Z,3.36
2024-01-05T20:57:00.859Z,3.02
2024-01-05T21:17:00.808Z,2.71
2024-01-05T21:37:00.915Z,2.52
2024-01-05T21:57:01.145Z,2.3
2024-01-05T22:17:01.673Z,2.14
2024-01-05T22:37:01.860Z,2
2024-01-05T22:57:03.013Z,1.87
2024-01-05T23:17:01.222Z,1.71
2024-01-05T23:37:01.160Z,1.53
2024-01-05T23:57:01.298Z,1.35
